M/V MiSS Mary Jean — WDG3633 — position and weather

sailwx.info

Track history (hours):
 
Tides and Currents Weather Stations Pressure Air Temp Water Temp Dewpoint Dewpoint Depression Visibility Wind Speed Wind Dir Waves Ship Positions

M/V MiSS Mary Jean

Owner: D&S Marine Service, LLC, Houma, LA. More information available from US FCC via Universal Licensing System and Coast Guard Vessel Documentation Center.

Last reported at 2018-Jun-06 08:32 UTC. Time now 2018-Jun-18 11:42 UTC.
Position N 28°45' W 095°45'.
Warning: this ship's position is 12 days out of date.

Length 219 m; draft 3.2 m.

Type: . MMSI: 367528080.

Date/timePositionNaut miles runAvg speedWind from/ knotsBaromVisibWave heightAir tempDewpointWater temp
2018-Jun-06 08:32N 28°45' W 095°45'1 3.7
2018-Jun-06 08:18N 28°45' W 095°45'20 2.6
2018-Jun-06 00:42N 28°54' W 095°24'1 2.0
2018-Jun-06 00:23N 28°54' W 095°24'1 3.0
2018-Jun-05 23:57N 28°54' W 095°22'0 0.3
2018-Jun-05 23:10N 28°54' W 095°23'0 0.9
2018-Jun-05 22:48N 28°54' W 095°22'1 1.9
2018-Jun-05 22:23N 28°55' W 095°21'2 4.0
2018-Jun-05 21:54N 28°56' W 095°20'2 4.1
2018-Jun-05 21:29N 28°57' W 095°18'2 4.2
2018-Jun-05 21:00N 28°59' W 095°17'2 4.0
2018-Jun-05 20:31N 28°60' W 095°15'2 3.8
2018-Jun-05 20:00N 29°01' W 095°14'2 3.8
2018-Jun-05 19:30N 29°03' W 095°13'2 3.7
2018-Jun-05 19:00N 29°05' W 095°12'2 3.6
2018-Jun-05 18:30N 29°07' W 095°12'2 4.0
2018-Jun-05 18:00N 29°08' W 095°10'2 4.4
2018-Jun-05 17:30N 29°09' W 095°08'3 5.3
2018-Jun-05 17:00N 29°11' W 095°06'3 5.3
2018-Jun-05 16:30N 29°12' W 095°03'3 5.2
2018-Jun-05 16:00N 29°14' W 095°01'3 5.5
2018-Jun-05 15:30N 29°16' W 094°59'3 5.5
2018-Jun-05 15:00N 29°17' W 094°56'2 4.5
2018-Jun-05 14:30N 29°17' W 094°54'6 6.0
2018-Jun-05 13:28N 29°22' W 094°48'12 6.2
2018-Jun-05 11:33N 29°32' W 094°54'0 6.1
2018-Jun-05 11:30N 29°33' W 094°54'3 6.1
2018-Jun-05 10:59N 29°35' W 094°56'3 5.6
2018-Jun-05 10:30N 29°38' W 094°58'3 6.1
2018-Jun-05 10:00N 29°41' W 094°59'8 3.0
2018-Jun-05 07:28N 29°45' W 095°06'0 0.1
2018-Jun-05 06:37N 29°45' W 095°06'1 1.5
2018-Jun-05 05:45N 29°46' W 095°07'1 2.0
2018-Jun-05 05:29N 29°46' W 095°06'1 1.6
2018-Jun-05 04:57N 29°45' W 095°06'1 0.1
2018-Jun-04 13:36N 29°46' W 095°07'0 0.0
2018-Jun-04 13:30N 29°46' W 095°07'0 0.0
2018-Jun-04 12:58N 29°46' W 095°07'0 0.0
2018-Jun-04 12:28N 29°46' W 095°07'0 0.0
2018-Jun-04 10:34N 29°46' W 095°07'0 0.0
2018-Jun-04 02:39N 29°46' W 095°07'0 0.0
2018-Jun-03 13:02N 29°46' W 095°07'0 0.0
2018-Jun-03 13:00N 29°46' W 095°07'0 0.0
2018-Jun-03 12:25N 29°46' W 095°07'0 0.0
2018-Jun-03 11:34N 29°46' W 095°07'0 0.0
2018-Jun-03 11:20N 29°46' W 095°07'0 0.0
2018-Jun-03 09:49N 29°46' W 095°07'0 0.0
2018-Jun-03 09:30N 29°46' W 095°07'0 0.0
2018-Jun-03 08:55N 29°46' W 095°07'0 0.0
2018-Jun-03 08:17N 29°46' W 095°07'0 0.2
2018-Jun-03 08:00N 29°46' W 095°07'1 1.5
2018-Jun-03 07:27N 29°46' W 095°06'0 0.9
2018-Jun-03 07:00N 29°45' W 095°06'0 0.2
2018-Jun-03 06:26N 29°45' W 095°06'0 0.0
2018-Jun-03 06:00N 29°45' W 095°06'0 0.0
2018-Jun-03 05:30N 29°45' W 095°06'0 0.2
2018-Jun-03 05:00N 29°45' W 095°06'0 0.3
2018-Jun-03 04:29N 29°45' W 095°06'0 0.0
2018-Jun-03 04:00N 29°45' W 095°06'0 0.0
2018-Jun-03 03:30N 29°45' W 095°06'0 0.0
2018-Jun-03 03:00N 29°45' W 095°06'0 0.0
2018-Jun-03 02:30N 29°45' W 095°06'0 0.0
2018-Jun-02 18:38N 29°45' W 095°06'2 0.8
2018-Jun-02 16:32N 29°45' W 095°04'2 3.4
2018-Jun-02 15:51N 29°44' W 095°01'0 0.5
2018-Jun-02 15:26N 29°44' W 095°01'0 0.0
2018-Jun-02 14:57N 29°44' W 095°01'0 0.0
2018-Jun-02 14:28N 29°44' W 095°01'0 0.0
2018-Jun-02 14:00N 29°44' W 095°01'0 0.0
2018-Jun-02 13:29N 29°44' W 095°01'0 0.0
2018-Jun-02 12:59N 29°44' W 095°01'0 0.0
2018-Jun-02 12:29N 29°44' W 095°01'0 0.0
2018-Jun-02 11:58N 29°44' W 095°01'0 0.0
2018-Jun-02 01:14N 29°44' W 095°01'1 6.1
2018-Jun-02 01:00N 29°44' W 095°03'3 0.8
2018-Jun-01 21:16N 29°45' W 095°06'0 0.6
2018-Jun-01 20:49N 29°45' W 095°06'0 0.0
2018-Jun-01 19:11N 29°45' W 095°06'0 0.0
2018-Jun-01 12:48N 29°45' W 095°06'0 0.0
2018-Jun-01 12:20N 29°45' W 095°06'0 0.0
2018-Jun-01 07:38N 29°45' W 095°06'0 0.0
2018-Jun-01 07:13N 29°45' W 095°06'0 0.0
2018-Jun-01 05:48N 29°45' W 095°06'0 0.0
2018-Jun-01 05:30N 29°45' W 095°06'0 0.0
2018-Jun-01 04:27N 29°45' W 095°06'0 0.0
2018-Jun-01 03:54N 29°45' W 095°06'0 0.0
2018-Jun-01 03:28N 29°45' W 095°06'0 0.1
2018-Jun-01 01:47N 29°45' W 095°06'1 2.4
2018-Jun-01 01:26N 29°46' W 095°06'1 0.0
2018-May-31 03:34N 29°46' W 095°07'1 6.1
2018-May-31 03:27N 29°45' W 095°06'0 0.7
2018-May-31 02:47N 29°46' W 095°06'0 0.0
2018-May-30 11:53N 29°45' W 095°06'0 0.0
2018-May-30 11:28N 29°45' W 095°06'0 0.0
2018-May-30 10:21N 29°45' W 095°06'0 0.0
2018-May-30 09:26N 29°45' W 095°06'0 0.0
2018-May-30 08:54N 29°45' W 095°06'0 0.0
2018-May-30 08:14N 29°45' W 095°06'0 0.0
2018-May-30 07:56N 29°45' W 095°06'0 0.1
2018-May-30 07:30N 29°45' W 095°06'0 0.8
2018-May-30 06:54N 29°46' W 095°05'1 2.1
2018-May-30 06:30N 29°46' W 095°04'1 2.7
2018-May-30 06:00N 29°44' W 095°03'2 4.0
2018-May-30 05:30N 29°44' W 095°01'2 3.9
2018-May-30 05:00N 29°42' W 095°00'2 4.6
2018-May-30 04:30N 29°40' W 094°59'3 5.6
2018-May-30 04:00N 29°38' W 094°58'2 4.5
2018-May-30 03:30N 29°35' W 094°56'3 5.7
2018-May-30 03:00N 29°33' W 094°55'3 5.5
2018-May-30 02:30N 29°31' W 094°53'3 5.1
2018-May-30 01:59N 29°28' W 094°51'2 5.1
2018-May-30 01:30N 29°26' W 094°50'3 5.6
2018-May-30 01:00N 29°24' W 094°49'2 4.0
2018-May-30 00:28N 29°23' W 094°47'2 4.5
2018-May-29 23:56N 29°24' W 094°45'2 3.8
2018-May-29 23:30N 29°25' W 094°43'20 4.2
2018-May-29 18:45N 29°36' W 094°24'1 3.8
2018-May-29 18:25N 29°36' W 094°23'2 4.4
2018-May-29 17:56N 29°37' W 094°21'2 4.5
2018-May-29 17:29N 29°38' W 094°18'2 4.5
2018-May-29 17:00N 29°39' W 094°16'2 4.7
2018-May-29 16:30N 29°40' W 094°14'2 4.7
2018-May-29 16:00N 29°41' W 094°11'2 4.5
2018-May-29 15:30N 29°42' W 094°09'3 5.1
2018-May-29 15:00N 29°43' W 094°07'3 5.4
2018-May-29 14:30N 29°45' W 094°04'2 4.7
2018-May-29 14:00N 29°47' W 094°02'3 5.1
2018-May-29 13:30N 29°48' W 094°00'1 2.1
2018-May-29 13:00N 29°49' W 093°59'0 0.2
2018-May-29 12:30N 29°49' W 093°59'0 0.2
2018-May-29 12:00N 29°49' W 093°59'0 0.2
2018-May-29 11:30N 29°49' W 093°59'0 0.0
2018-May-29 11:00N 29°49' W 093°59'0 0.0
2018-May-29 10:30N 29°49' W 093°59'0 0.2
2018-May-29 10:00N 29°49' W 093°59'2 3.5
2018-May-29 09:30N 29°50' W 093°57'3 5.2
2018-May-29 09:00N 29°53' W 093°56'3 5.5
2018-May-29 08:30N 29°55' W 093°54'3 5.5
2018-May-29 08:00N 29°57' W 093°52'2 4.1
2018-May-29 07:30N 29°59' W 093°52'3 5.9
2018-May-29 07:00N 29°59' W 093°56'2 4.8
2018-May-29 06:30N 30°01' W 093°58'3 5.4
2018-May-29 06:00N 30°01' W 094°01'2 4.5
2018-May-29 05:30N 30°03' W 094°02'2 4.5
2018-May-29 04:59N 30°05' W 094°04'0 0.6
2018-May-29 04:30N 30°05' W 094°04'0 0.1
2018-May-29 04:00N 30°05' W 094°04'0 0.1
2018-May-29 03:30N 30°05' W 094°04'0 0.1
2018-May-29 03:00N 30°05' W 094°04'0 0.0
2018-May-29 02:30N 30°05' W 094°04'0 0.0
2018-May-29 02:00N 30°05' W 094°04'0 0.0
2018-May-29 01:30N 30°05' W 094°04'0 0.0
2018-May-29 00:59N 30°05' W 094°04'0 0.0
2018-May-29 00:30N 30°05' W 094°04'0 0.0
2018-May-29 00:00N 30°05' W 094°04'0 0.0
2018-May-28 23:30N 30°05' W 094°04'0 0.0
2018-May-28 23:00N 30°05' W 094°04'0 0.0
2018-May-28 22:30N 30°05' W 094°04'0 0.0
2018-May-28 21:59N 30°05' W 094°04'0 0.0
2018-May-28 21:30N 30°05' W 094°04'0 0.0
2018-May-28 21:00N 30°05' W 094°04'0 0.0
2018-May-28 20:30N 30°05' W 094°04'0 0.0
2018-May-28 20:00N 30°05' W 094°04'0 0.0
2018-May-28 19:30N 30°05' W 094°04'0 0.0
2018-May-28 19:00N 30°05' W 094°04'0 0.0
2018-May-28 18:30N 30°05' W 094°04'0 0.0
2018-May-28 18:00N 30°05' W 094°04'0 0.0
2018-May-28 17:30N 30°05' W 094°04'0 0.0
2018-May-28 17:00N 30°05' W 094°04'0 0.0
2018-May-28 16:30N 30°05' W 094°04'0 0.0
2018-May-28 15:59N 30°05' W 094°04'0 0.0
2018-May-28 15:30N 30°05' W 094°04'0 0.0
2018-May-28 15:00N 30°05' W 094°04'0 0.0
2018-May-28 14:30N 30°05' W 094°04'0 0.0
2018-May-28 14:00N 30°05' W 094°04'0 0.0
2018-May-28 13:30N 30°05' W 094°04'0 0.0
2018-May-28 13:00N 30°05' W 094°04'0 0.0
2018-May-28 12:30N 30°05' W 094°04'0 0.0
2018-May-28 12:00N 30°05' W 094°04'0 0.0
2018-May-28 11:30N 30°05' W 094°04'0 0.0
2018-May-28 11:00N 30°05' W 094°04'0 0.0
2018-May-28 10:30N 30°05' W 094°04'0 0.0
2018-May-28 10:00N 30°05' W 094°04'0 0.0
2018-May-28 09:30N 30°05' W 094°04'0 0.0
2018-May-28 09:00N 30°05' W 094°04'0 0.0
2018-May-28 08:30N 30°05' W 094°04'0 0.0
2018-May-28 08:00N 30°05' W 094°04'0 0.0
2018-May-28 07:30N 30°05' W 094°04'0 0.0
2018-May-28 07:00N 30°05' W 094°04'0 0.0
2018-May-28 06:30N 30°05' W 094°04'0 0.0
2018-May-28 06:00N 30°05' W 094°04'0 0.1
2018-May-28 05:30N 30°05' W 094°04'0 0.0
2018-May-28 05:00N 30°05' W 094°04'0 0.0
2018-May-28 04:30N 30°05' W 094°04'0 0.0
2018-May-28 04:00N 30°05' W 094°04'0 0.1
2018-May-28 03:30N 30°05' W 094°04'0 0.0
2018-May-28 03:00N 30°05' W 094°04'0 0.0
2018-May-28 02:30N 30°05' W 094°04'0 1.0
2018-May-28 02:00N 30°05' W 094°04'1 1.6
2018-May-28 01:30N 30°04' W 094°03'0 0.0
2018-May-28 01:00N 30°04' W 094°03'0 0.0
2018-May-28 00:30N 30°04' W 094°03'0 0.0
2018-May-28 00:00N 30°04' W 094°03'0 0.0
2018-May-27 23:30N 30°04' W 094°03'0 0.0
2018-May-27 23:00N 30°04' W 094°03'0 0.0
2018-May-27 22:30N 30°04' W 094°03'0 0.0
2018-May-27 22:00N 30°04' W 094°03'0 0.0
2018-May-27 21:30N 30°04' W 094°03'0 0.0
2018-May-27 21:00N 30°04' W 094°03'0 0.0
2018-May-27 20:30N 30°04' W 094°03'0 0.0
2018-May-27 20:00N 30°04' W 094°03'0 0.0
2018-May-27 19:30N 30°04' W 094°03'0 0.0
2018-May-27 19:01N 30°04' W 094°03'0 0.0
2018-May-27 18:30N 30°04' W 094°03'0 0.0
2018-May-27 18:00N 30°04' W 094°03'0 0.0
2018-May-27 17:30N 30°04' W 094°03'0 0.0
2018-May-27 17:00N 30°04' W 094°03'0 0.0
2018-May-27 16:30N 30°04' W 094°03'0 0.0
2018-May-27 16:00N 30°04' W 094°03'0 0.0
2018-May-27 15:29N 30°04' W 094°03'0 0.0
2018-May-27 15:00N 30°04' W 094°03'0 0.0
2018-May-27 14:30N 30°04' W 094°03'0 0.0
2018-May-27 14:00N 30°04' W 094°03'0 0.0
2018-May-27 13:29N 30°04' W 094°03'0 0.0
2018-May-27 13:00N 30°04' W 094°03'0 0.0
2018-May-27 12:30N 30°04' W 094°03'0 0.0
2018-May-27 12:00N 30°04' W 094°03'0 0.0
2018-May-27 11:30N 30°04' W 094°03'0 0.0
2018-May-27 11:00N 30°04' W 094°03'0 0.0
2018-May-27 10:30N 30°04' W 094°03'0 0.0
2018-May-27 10:00N 30°04' W 094°03'0 0.0
2018-May-27 09:30N 30°04' W 094°03'0 0.0
2018-May-27 09:00N 30°04' W 094°03'  
Track history (hours):
 
Tides and Currents Weather Stations Pressure Air Temp Water Temp Dewpoint Dewpoint Depression Visibility Wind Speed Wind Dir Waves Ship Positions

M/V MiSS Mary Jean

Owner: D&S Marine Service, LLC, Houma, LA. More information available from US FCC via Universal Licensing System and Coast Guard Vessel Documentation Center.

Last reported at 2018-Jun-06 08:32 UTC. Time now 2018-Jun-18 11:42 UTC.
Position N 28°45' W 095°45'.
Warning: this ship's position is 12 days out of date.

Length 219 m; draft 3.2 m.

Type: . MMSI: 367528080.

Date/timePositionNaut miles runAvg speedWind from/ knotsBaromVisibWave heightAir tempDewpointWater temp
2018-Jun-06 08:32N 28°45' W 095°45'1 3.7
2018-Jun-06 08:18N 28°45' W 095°45'20 2.6
2018-Jun-06 00:42N 28°54' W 095°24'1 2.0
2018-Jun-06 00:23N 28°54' W 095°24'1 3.0
2018-Jun-05 23:57N 28°54' W 095°22'0 0.3
2018-Jun-05 23:10N 28°54' W 095°23'0 0.9
2018-Jun-05 22:48N 28°54' W 095°22'1 1.9
2018-Jun-05 22:23N 28°55' W 095°21'2 4.0
2018-Jun-05 21:54N 28°56' W 095°20'2 4.1
2018-Jun-05 21:29N 28°57' W 095°18'2 4.2
2018-Jun-05 21:00N 28°59' W 095°17'2 4.0
2018-Jun-05 20:31N 28°60' W 095°15'2 3.8
2018-Jun-05 20:00N 29°01' W 095°14'2 3.8
2018-Jun-05 19:30N 29°03' W 095°13'2 3.7
2018-Jun-05 19:00N 29°05' W 095°12'2 3.6
2018-Jun-05 18:30N 29°07' W 095°12'2 4.0
2018-Jun-05 18:00N 29°08' W 095°10'2 4.4
2018-Jun-05 17:30N 29°09' W 095°08'3 5.3
2018-Jun-05 17:00N 29°11' W 095°06'3 5.3
2018-Jun-05 16:30N 29°12' W 095°03'3 5.2
2018-Jun-05 16:00N 29°14' W 095°01'3 5.5
2018-Jun-05 15:30N 29°16' W 094°59'3 5.5
2018-Jun-05 15:00N 29°17' W 094°56'2 4.5
2018-Jun-05 14:30N 29°17' W 094°54'6 6.0
2018-Jun-05 13:28N 29°22' W 094°48'12 6.2
2018-Jun-05 11:33N 29°32' W 094°54'0 6.1
2018-Jun-05 11:30N 29°33' W 094°54'3 6.1
2018-Jun-05 10:59N 29°35' W 094°56'3 5.6
2018-Jun-05 10:30N 29°38' W 094°58'3 6.1
2018-Jun-05 10:00N 29°41' W 094°59'8 3.0
2018-Jun-05 07:28N 29°45' W 095°06'0 0.1
2018-Jun-05 06:37N 29°45' W 095°06'1 1.5
2018-Jun-05 05:45N 29°46' W 095°07'1 2.0
2018-Jun-05 05:29N 29°46' W 095°06'1 1.6
2018-Jun-05 04:57N 29°45' W 095°06'1 0.1
2018-Jun-04 13:36N 29°46' W 095°07'0 0.0
2018-Jun-04 13:30N 29°46' W 095°07'0 0.0
2018-Jun-04 12:58N 29°46' W 095°07'0 0.0
2018-Jun-04 12:28N 29°46' W 095°07'0 0.0
2018-Jun-04 10:34N 29°46' W 095°07'0 0.0
2018-Jun-04 02:39N 29°46' W 095°07'0 0.0
2018-Jun-03 13:02N 29°46' W 095°07'0 0.0
2018-Jun-03 13:00N 29°46' W 095°07'0 0.0
2018-Jun-03 12:25N 29°46' W 095°07'0 0.0
2018-Jun-03 11:34N 29°46' W 095°07'0 0.0
2018-Jun-03 11:20N 29°46' W 095°07'0 0.0
2018-Jun-03 09:49N 29°46' W 095°07'0 0.0
2018-Jun-03 09:30N 29°46' W 095°07'0 0.0
2018-Jun-03 08:55N 29°46' W 095°07'0 0.0
2018-Jun-03 08:17N 29°46' W 095°07'0 0.2
2018-Jun-03 08:00N 29°46' W 095°07'1 1.5
2018-Jun-03 07:27N 29°46' W 095°06'0 0.9
2018-Jun-03 07:00N 29°45' W 095°06'0 0.2
2018-Jun-03 06:26N 29°45' W 095°06'0 0.0
2018-Jun-03 06:00N 29°45' W 095°06'0 0.0
2018-Jun-03 05:30N 29°45' W 095°06'0 0.2
2018-Jun-03 05:00N 29°45' W 095°06'0 0.3
2018-Jun-03 04:29N 29°45' W 095°06'0 0.0
2018-Jun-03 04:00N 29°45' W 095°06'0 0.0
2018-Jun-03 03:30N 29°45' W 095°06'0 0.0
2018-Jun-03 03:00N 29°45' W 095°06'0 0.0
2018-Jun-03 02:30N 29°45' W 095°06'0 0.0
2018-Jun-02 18:38N 29°45' W 095°06'2 0.8
2018-Jun-02 16:32N 29°45' W 095°04'2 3.4
2018-Jun-02 15:51N 29°44' W 095°01'0 0.5
2018-Jun-02 15:26N 29°44' W 095°01'0 0.0
2018-Jun-02 14:57N 29°44' W 095°01'0 0.0
2018-Jun-02 14:28N 29°44' W 095°01'0 0.0
2018-Jun-02 14:00N 29°44' W 095°01'0 0.0
2018-Jun-02 13:29N 29°44' W 095°01'0 0.0
2018-Jun-02 12:59N 29°44' W 095°01'0 0.0
2018-Jun-02 12:29N 29°44' W 095°01'0 0.0
2018-Jun-02 11:58N 29°44' W 095°01'0 0.0
2018-Jun-02 01:14N 29°44' W 095°01'1 6.1
2018-Jun-02 01:00N 29°44' W 095°03'3 0.8
2018-Jun-01 21:16N 29°45' W 095°06'0 0.6
2018-Jun-01 20:49N 29°45' W 095°06'0 0.0
2018-Jun-01 19:11N 29°45' W 095°06'0 0.0
2018-Jun-01 12:48N 29°45' W 095°06'0 0.0
2018-Jun-01 12:20N 29°45' W 095°06'0 0.0
2018-Jun-01 07:38N 29°45' W 095°06'0 0.0
2018-Jun-01 07:13N 29°45' W 095°06'0 0.0
2018-Jun-01 05:48N 29°45' W 095°06'0 0.0
2018-Jun-01 05:30N 29°45' W 095°06'0 0.0
2018-Jun-01 04:27N 29°45' W 095°06'0 0.0
2018-Jun-01 03:54N 29°45' W 095°06'0 0.0
2018-Jun-01 03:28N 29°45' W 095°06'0 0.1
2018-Jun-01 01:47N 29°45' W 095°06'1 2.4
2018-Jun-01 01:26N 29°46' W 095°06'1 0.0
2018-May-31 03:34N 29°46' W 095°07'1 6.1
2018-May-31 03:27N 29°45' W 095°06'0 0.7
2018-May-31 02:47N 29°46' W 095°06'0 0.0
2018-May-30 11:53N 29°45' W 095°06'0 0.0
2018-May-30 11:28N 29°45' W 095°06'0 0.0
2018-May-30 10:21N 29°45' W 095°06'0 0.0
2018-May-30 09:26N 29°45' W 095°06'0 0.0
2018-May-30 08:54N 29°45' W 095°06'0 0.0
2018-May-30 08:14N 29°45' W 095°06'0 0.0
2018-May-30 07:56N 29°45' W 095°06'0 0.1
2018-May-30 07:30N 29°45' W 095°06'0 0.8
2018-May-30 06:54N 29°46' W 095°05'1 2.1
2018-May-30 06:30N 29°46' W 095°04'1 2.7
2018-May-30 06:00N 29°44' W 095°03'2 4.0
2018-May-30 05:30N 29°44' W 095°01'2 3.9
2018-May-30 05:00N 29°42' W 095°00'2 4.6
2018-May-30 04:30N 29°40' W 094°59'3 5.6
2018-May-30 04:00N 29°38' W 094°58'2 4.5
2018-May-30 03:30N 29°35' W 094°56'3 5.7
2018-May-30 03:00N 29°33' W 094°55'3 5.5
2018-May-30 02:30N 29°31' W 094°53'3 5.1
2018-May-30 01:59N 29°28' W 094°51'2 5.1
2018-May-30 01:30N 29°26' W 094°50'3 5.6
2018-May-30 01:00N 29°24' W 094°49'2 4.0
2018-May-30 00:28N 29°23' W 094°47'2 4.5
2018-May-29 23:56N 29°24' W 094°45'2 3.8
2018-May-29 23:30N 29°25' W 094°43'20 4.2
2018-May-29 18:45N 29°36' W 094°24'1 3.8
2018-May-29 18:25N 29°36' W 094°23'2 4.4
2018-May-29 17:56N 29°37' W 094°21'2 4.5
2018-May-29 17:29N 29°38' W 094°18'2 4.5
2018-May-29 17:00N 29°39' W 094°16'2 4.7
2018-May-29 16:30N 29°40' W 094°14'2 4.7
2018-May-29 16:00N 29°41' W 094°11'2 4.5
2018-May-29 15:30N 29°42' W 094°09'3 5.1
2018-May-29 15:00N 29°43' W 094°07'3 5.4
2018-May-29 14:30N 29°45' W 094°04'2 4.7
2018-May-29 14:00N 29°47' W 094°02'3 5.1
2018-May-29 13:30N 29°48' W 094°00'1 2.1
2018-May-29 13:00N 29°49' W 093°59'0 0.2
2018-May-29 12:30N 29°49' W 093°59'0 0.2
2018-May-29 12:00N 29°49' W 093°59'0 0.2
2018-May-29 11:30N 29°49' W 093°59'0 0.0
2018-May-29 11:00N 29°49' W 093°59'0 0.0
2018-May-29 10:30N 29°49' W 093°59'0 0.2
2018-May-29 10:00N 29°49' W 093°59'2 3.5
2018-May-29 09:30N 29°50' W 093°57'3 5.2
2018-May-29 09:00N 29°53' W 093°56'3 5.5
2018-May-29 08:30N 29°55' W 093°54'3 5.5
2018-May-29 08:00N 29°57' W 093°52'2 4.1
2018-May-29 07:30N 29°59' W 093°52'3 5.9
2018-May-29 07:00N 29°59' W 093°56'2 4.8
2018-May-29 06:30N 30°01' W 093°58'3 5.4
2018-May-29 06:00N 30°01' W 094°01'2 4.5
2018-May-29 05:30N 30°03' W 094°02'2 4.5
2018-May-29 04:59N 30°05' W 094°04'0 0.6
2018-May-29 04:30N 30°05' W 094°04'0 0.1
2018-May-29 04:00N 30°05' W 094°04'0 0.1
2018-May-29 03:30N 30°05' W 094°04'0 0.1
2018-May-29 03:00N 30°05' W 094°04'0 0.0
2018-May-29 02:30N 30°05' W 094°04'0 0.0
2018-May-29 02:00N 30°05' W 094°04'0 0.0
2018-May-29 01:30N 30°05' W 094°04'0 0.0
2018-May-29 00:59N 30°05' W 094°04'0 0.0
2018-May-29 00:30N 30°05' W 094°04'0 0.0
2018-May-29 00:00N 30°05' W 094°04'0 0.0
2018-May-28 23:30N 30°05' W 094°04'0 0.0
2018-May-28 23:00N 30°05' W 094°04'0 0.0
2018-May-28 22:30N 30°05' W 094°04'0 0.0
2018-May-28 21:59N 30°05' W 094°04'0 0.0
2018-May-28 21:30N 30°05' W 094°04'0 0.0
2018-May-28 21:00N 30°05' W 094°04'0 0.0
2018-May-28 20:30N 30°05' W 094°04'0 0.0
2018-May-28 20:00N 30°05' W 094°04'0 0.0
2018-May-28 19:30N 30°05' W 094°04'0 0.0
2018-May-28 19:00N 30°05' W 094°04'0 0.0
2018-May-28 18:30N 30°05' W 094°04'0 0.0
2018-May-28 18:00N 30°05' W 094°04'0 0.0
2018-May-28 17:30N 30°05' W 094°04'0 0.0
2018-May-28 17:00N 30°05' W 094°04'0 0.0
2018-May-28 16:30N 30°05' W 094°04'0 0.0
2018-May-28 15:59N 30°05' W 094°04'0 0.0
2018-May-28 15:30N 30°05' W 094°04'0 0.0
2018-May-28 15:00N 30°05' W 094°04'0 0.0
2018-May-28 14:30N 30°05' W 094°04'0 0.0
2018-May-28 14:00N 30°05' W 094°04'0 0.0
2018-May-28 13:30N 30°05' W 094°04'0 0.0
2018-May-28 13:00N 30°05' W 094°04'0 0.0
2018-May-28 12:30N 30°05' W 094°04'0 0.0
2018-May-28 12:00N 30°05' W 094°04'0 0.0
2018-May-28 11:30N 30°05' W 094°04'0 0.0
2018-May-28 11:00N 30°05' W 094°04'0 0.0
2018-May-28 10:30N 30°05' W 094°04'0 0.0
2018-May-28 10:00N 30°05' W 094°04'0 0.0
2018-May-28 09:30N 30°05' W 094°04'0 0.0
2018-May-28 09:00N 30°05' W 094°04'0 0.0
2018-May-28 08:30N 30°05' W 094°04'0 0.0
2018-May-28 08:00N 30°05' W 094°04'0 0.0
2018-May-28 07:30N 30°05' W 094°04'0 0.0
2018-May-28 07:00N 30°05' W 094°04'0 0.0
2018-May-28 06:30N 30°05' W 094°04'0 0.0
2018-May-28 06:00N 30°05' W 094°04'0 0.1
2018-May-28 05:30N 30°05' W 094°04'0 0.0
2018-May-28 05:00N 30°05' W 094°04'0 0.0
2018-May-28 04:30N 30°05' W 094°04'0 0.0
2018-May-28 04:00N 30°05' W 094°04'0 0.1
2018-May-28 03:30N 30°05' W 094°04'0 0.0
2018-May-28 03:00N 30°05' W 094°04'0 0.0
2018-May-28 02:30N 30°05' W 094°04'0 1.0
2018-May-28 02:00N 30°05' W 094°04'1 1.6
2018-May-28 01:30N 30°04' W 094°03'0 0.0
2018-May-28 01:00N 30°04' W 094°03'0 0.0
2018-May-28 00:30N 30°04' W 094°03'0 0.0
2018-May-28 00:00N 30°04' W 094°03'0 0.0
2018-May-27 23:30N 30°04' W 094°03'0 0.0
2018-May-27 23:00N 30°04' W 094°03'0 0.0
2018-May-27 22:30N 30°04' W 094°03'0 0.0
2018-May-27 22:00N 30°04' W 094°03'0 0.0
2018-May-27 21:30N 30°04' W 094°03'0 0.0
2018-May-27 21:00N 30°04' W 094°03'0 0.0
2018-May-27 20:30N 30°04' W 094°03'0 0.0
2018-May-27 20:00N 30°04' W 094°03'0 0.0
2018-May-27 19:30N 30°04' W 094°03'0 0.0
2018-May-27 19:01N 30°04' W 094°03'0 0.0
2018-May-27 18:30N 30°04' W 094°03'0 0.0
2018-May-27 18:00N 30°04' W 094°03'0 0.0
2018-May-27 17:30N 30°04' W 094°03'0 0.0
2018-May-27 17:00N 30°04' W 094°03'0 0.0
2018-May-27 16:30N 30°04' W 094°03'0 0.0
2018-May-27 16:00N 30°04' W 094°03'0 0.0
2018-May-27 15:29N 30°04' W 094°03'0 0.0
2018-May-27 15:00N 30°04' W 094°03'0 0.0
2018-May-27 14:30N 30°04' W 094°03'0 0.0
2018-May-27 14:00N 30°04' W 094°03'0 0.0
2018-May-27 13:29N 30°04' W 094°03'0 0.0
2018-May-27 13:00N 30°04' W 094°03'0 0.0
2018-May-27 12:30N 30°04' W 094°03'0 0.0
2018-May-27 12:00N 30°04' W 094°03'0 0.0
2018-May-27 11:30N 30°04' W 094°03'0 0.0
2018-May-27 11:00N 30°04' W 094°03'0 0.0
2018-May-27 10:30N 30°04' W 094°03'0 0.0
2018-May-27 10:00N 30°04' W 094°03'0 0.0
2018-May-27 09:30N 30°04' W 094°03'0 0.0
2018-May-27 09:00N 30°04' W 094°03'  

Dump ship's entire track history